sensor_id;sensor_type;location;lat;lon;timestamp;temperature;humidity
75683;HTU21D;64295;44.772;39.872;2023-02-01T00:02:02;5.45;70.72
75683;HTU21D;64295;44.772;39.872;2023-02-01T00:04:28;5.41;70.77
75683;HTU21D;64295;44.772;39.872;2023-02-01T00:06:54;5.39;70.80
75683;HTU21D;64295;44.772;39.872;2023-02-01T00:09:20;5.40;70.80
75683;HTU21D;64295;44.772;39.872;2023-02-01T00:11:45;5.36;70.83
75683;HTU21D;64295;44.772;39.872;2023-02-01T00:14:11;5.32;70.89
75683;HTU21D;64295;44.772;39.872;2023-02-01T00:16:37;5.33;70.89
75683;HTU21D;64295;44.772;39.872;2023-02-01T00:19:07;5.34;70.88
75683;HTU21D;64295;44.772;39.872;2023-02-01T00:21:33;5.32;70.86
75683;HTU21D;64295;44.772;39.872;2023-02-01T00:23:59;5.31;70.89
75683;HTU21D;64295;44.772;39.872;2023-02-01T00:26:27;5.30;70.91
75683;HTU21D;64295;44.772;39.872;2023-02-01T00:28:55;5.22;71.04
75683;HTU21D;64295;44.772;39.872;2023-02-01T00:31:21;5.22;71.08
75683;HTU21D;64295;44.772;39.872;2023-02-01T00:33:49;5.17;71.13
75683;HTU21D;64295;44.772;39.872;2023-02-01T00:36:15;5.19;71.16
75683;HTU21D;64295;44.772;39.872;2023-02-01T00:38:41;5.19;71.14
75683;HTU21D;64295;44.772;39.872;2023-02-01T00:41:14;5.18;71.15
75683;HTU21D;64295;44.772;39.872;2023-02-01T00:43:40;5.20;71.08
75683;HTU21D;64295;44.772;39.872;2023-02-01T00:46:06;5.22;71.05
75683;HTU21D;64295;44.772;39.872;2023-02-01T00:48:32;5.22;71.01
75683;HTU21D;64295;44.772;39.872;2023-02-01T00:51:05;5.23;71.01
75683;HTU21D;64295;44.772;39.872;2023-02-01T00:53:32;5.21;71.00
75683;HTU21D;64295;44.772;39.872;2023-02-01T00:55:58;5.16;71.06
75683;HTU21D;64295;44.772;39.872;2023-02-01T00:58:24;5.10;71.13
75683;HTU21D;64295;44.772;39.872;2023-02-01T01:01:08;5.06;71.29
75683;HTU21D;64295;44.772;39.872;2023-02-01T01:03:37;4.98;71.35
75683;HTU21D;64295;44.772;39.872;2023-02-01T01:06:09;4.87;71.71
75683;HTU21D;64295;44.772;39.872;2023-02-01T01:08:36;4.81;71.77
75683;HTU21D;64295;44.772;39.872;2023-02-01T01:11:24;4.76;72.00
75683;HTU21D;64295;44.772;39.872;2023-02-01T01:13:50;4.78;71.76
75683;HTU21D;64295;44.772;39.872;2023-02-01T01:16:19;4.82;71.36
75683;HTU21D;64295;44.772;39.872;2023-02-01T01:18:45;4.84;71.26
75683;HTU21D;64295;44.772;39.872;2023-02-01T01:21:13;4.89;71.29
75683;HTU21D;64295;44.772;39.872;2023-02-01T01:23:40;4.94;71.19
75683;HTU21D;64295;44.772;39.872;2023-02-01T01:26:08;4.97;71.13
75683;HTU21D;64295;44.772;39.872;2023-02-01T01:28:34;5.01;71.10
75683;HTU21D;64295;44.772;39.872;2023-02-01T01:31:00;4.96;71.15
75683;HTU21D;64295;44.772;39.872;2023-02-01T01:33:26;4.84;71.47
75683;HTU21D;64295;44.772;39.872;2023-02-01T01:35:52;4.72;71.84
75683;HTU21D;64295;44.772;39.872;2023-02-01T01:38:18;4.69;71.93
75683;HTU21D;64295;44.772;39.872;2023-02-01T01:40:47;4.74;71.83
75683;HTU21D;64295;44.772;39.872;2023-02-01T01:43:17;4.72;71.82
75683;HTU21D;64295;44.772;39.872;2023-02-01T01:45:45;4.69;71.90
75683;HTU21D;64295;44.772;39.872;2023-02-01T01:48:27;4.67;71.92
75683;HTU21D;64295;44.772;39.872;2023-02-01T01:50:59;4.65;71.91
75683;HTU21D;64295;44.772;39.872;2023-02-01T01:53:31;4.67;71.87
75683;HTU21D;64295;44.772;39.872;2023-02-01T01:55:58;4.74;71.74
75683;HTU21D;64295;44.772;39.872;2023-02-01T01:58:28;4.82;71.60
75683;HTU21D;64295;44.772;39.872;2023-02-01T02:00:55;4.87;71.50
75683;HTU21D;64295;44.772;39.872;2023-02-01T02:03:30;4.91;71.45
75683;HTU21D;64295;44.772;39.872;2023-02-01T02:06:01;4.96;71.38
75683;HTU21D;64295;44.772;39.872;2023-02-01T02:08:28;4.98;71.33
75683;HTU21D;64295;44.772;39.872;2023-02-01T02:10:55;5.03;71.29
75683;HTU21D;64295;44.772;39.872;2023-02-01T02:27:32;4.68;71.88
75683;HTU21D;64295;44.772;39.872;2023-02-01T02:30:29;4.71;71.93
75683;HTU21D;64295;44.772;39.872;2023-02-01T02:47:46;4.46;72.36
75683;HTU21D;64295;44.772;39.872;2023-02-01T02:50:35;4.42;72.44
75683;HTU21D;64295;44.772;39.872;2023-02-01T02:53:28;4.43;72.33
75683;HTU21D;64295;44.772;39.872;2023-02-01T02:56:15;4.45;72.25
75683;HTU21D;64295;44.772;39.872;2023-02-01T02:59:01;4.52;72.12
75683;HTU21D;64295;44.772;39.872;2023-02-01T03:01:47;4.59;71.90
75683;HTU21D;64295;44.772;39.872;2023-02-01T03:04:32;4.61;71.87
75683;HTU21D;64295;44.772;39.872;2023-02-01T03:07:15;4.54;72.17
75683;HTU21D;64295;44.772;39.872;2023-02-01T03:09:57;4.57;72.21
75683;HTU21D;64295;44.772;39.872;2023-02-01T03:12:24;4.72;72.24
75683;HTU21D;64295;44.772;39.872;2023-02-01T03:15:11;4.79;72.00
75683;HTU21D;64295;44.772;39.872;2023-02-01T03:17:42;4.77;72.05
75683;HTU21D;64295;44.772;39.872;2023-02-01T03:20:10;4.77;72.12
75683;HTU21D;64295;44.772;39.872;2023-02-01T03:22:41;4.74;72.19
75683;HTU21D;64295;44.772;39.872;2023-02-01T03:25:29;4.75;72.24
75683;HTU21D;64295;44.772;39.872;2023-02-01T03:28:04;4.74;72.06
75683;HTU21D;64295;44.772;39.872;2023-02-01T03:30:37;4.74;71.90
75683;HTU21D;64295;44.772;39.872;2023-02-01T03:33:11;4.75;71.85
75683;HTU21D;64295;44.772;39.872;2023-02-01T03:40:55;4.61;72.23
75683;HTU21D;64295;44.772;39.872;2023-02-01T03:43:24;4.60;72.29
75683;HTU21D;64295;44.772;39.872;2023-02-01T03:45:56;4.58;72.32
75683;HTU21D;64295;44.772;39.872;2023-02-01T03:48:25;4.56;72.38
75683;HTU21D;64295;44.772;39.872;2023-02-01T03:50:56;4.51;72.51
75683;HTU21D;64295;44.772;39.872;2023-02-01T03:53:24;4.47;72.59
75683;HTU21D;64295;44.772;39.872;2023-02-01T03:55:51;4.43;72.74
75683;HTU21D;64295;44.772;39.872;2023-02-01T03:58:21;4.43;72.83
75683;HTU21D;64295;44.772;39.872;2023-02-01T04:00:59;4.47;72.80
75683;HTU21D;64295;44.772;39.872;2023-02-01T04:03:27;4.47;72.67
75683;HTU21D;64295;44.772;39.872;2023-02-01T04:05:53;4.50;72.64
75683;HTU21D;64295;44.772;39.872;2023-02-01T04:08:24;4.56;72.55
75683;HTU21D;64295;44.772;39.872;2023-02-01T04:10:50;4.60;72.45
75683;HTU21D;64295;44.772;39.872;2023-02-01T04:13:16;4.59;72.46
75683;HTU21D;64295;44.772;39.872;2023-02-01T04:15:42;4.60;72.47
75683;HTU21D;64295;44.772;39.872;2023-02-01T04:18:08;4.54;72.60
75683;HTU21D;64295;44.772;39.872;2023-02-01T04:20:34;4.51;72.75
75683;HTU21D;64295;44.772;39.872;2023-02-01T04:23:00;4.48;72.81
75683;HTU21D;64295;44.772;39.872;2023-02-01T04:25:28;4.47;72.88
75683;HTU21D;64295;44.772;39.872;2023-02-01T04:27:54;4.51;72.85
75683;HTU21D;64295;44.772;39.872;2023-02-01T04:30:20;4.58;72.71
75683;HTU21D;64295;44.772;39.872;2023-02-01T04:32:46;4.63;72.61
75683;HTU21D;64295;44.772;39.872;2023-02-01T04:35:12;4.69;72.48
75683;HTU21D;64295;44.772;39.872;2023-02-01T04:37:38;4.72;72.41
75683;HTU21D;64295;44.772;39.872;2023-02-01T04:40:04;4.74;72.41
75683;HTU21D;64295;44.772;39.872;2023-02-01T04:42:30;4.68;72.47
75683;HTU21D;64295;44.772;39.872;2023-02-01T04:44:56;4.65;72.61
75683;HTU21D;64295;44.772;39.872;2023-02-01T04:47:22;4.67;72.61
75683;HTU21D;64295;44.772;39.872;2023-02-01T04:49:47;4.72;72.56
75683;HTU21D;64295;44.772;39.872;2023-02-01T04:52:13;4.75;72.43
75683;HTU21D;64295;44.772;39.872;2023-02-01T04:54:39;4.69;72.57
75683;HTU21D;64295;44.772;39.872;2023-02-01T04:57:05;4.67;72.67
75683;HTU21D;64295;44.772;39.872;2023-02-01T04:59:31;4.69;72.63
75683;HTU21D;64295;44.772;39.872;2023-02-01T05:01:56;4.74;72.52
75683;HTU21D;64295;44.772;39.872;2023-02-01T05:04:22;4.81;72.45
75683;HTU21D;64295;44.772;39.872;2023-02-01T05:06:48;4.88;72.33
75683;HTU21D;64295;44.772;39.872;2023-02-01T05:09:14;4.92;72.21
75683;HTU21D;64295;44.772;39.872;2023-02-01T05:11:40;4.92;72.21
75683;HTU21D;64295;44.772;39.872;2023-02-01T05:14:24;4.91;72.16
75683;HTU21D;64295;44.772;39.872;2023-02-01T05:16:50;4.90;72.19
75683;HTU21D;64295;44.772;39.872;2023-02-01T05:19:16;4.87;72.27
75683;HTU21D;64295;44.772;39.872;2023-02-01T05:21:42;4.92;72.24
75683;HTU21D;64295;44.772;39.872;2023-02-01T05:24:08;4.95;72.18
75683;HTU21D;64295;44.772;39.872;2023-02-01T05:26:47;5.00;72.06
75683;HTU21D;64295;44.772;39.872;2023-02-01T05:29:13;5.04;72.01
75683;HTU21D;64295;44.772;39.872;2023-02-01T05:31:40;5.08;71.92
75683;HTU21D;64295;44.772;39.872;2023-02-01T05:34:07;5.15;71.88
75683;HTU21D;64295;44.772;39.872;2023-02-01T05:36:33;5.16;71.82
75683;HTU21D;64295;44.772;39.872;2023-02-01T05:38:59;5.16;71.84
75683;HTU21D;64295;44.772;39.872;2023-02-01T05:41:25;5.16;71.84
75683;HTU21D;64295;44.772;39.872;2023-02-01T05:43:51;5.18;71.89
75683;HTU21D;64295;44.772;39.872;2023-02-01T05:46:17;5.21;71.84
75683;HTU21D;64295;44.772;39.872;2023-02-01T05:48:46;5.22;71.80
75683;HTU21D;64295;44.772;39.872;2023-02-01T05:51:12;5.24;71.75
75683;HTU21D;64295;44.772;39.872;2023-02-01T05:53:38;5.20;71.75
75683;HTU21D;64295;44.772;39.872;2023-02-01T05:56:04;5.13;71.93
75683;HTU21D;64295;44.772;39.872;2023-02-01T05:58:31;5.16;71.90
75683;HTU21D;64295;44.772;39.872;2023-02-01T06:00:59;5.18;71.84
75683;HTU21D;64295;44.772;39.872;2023-02-01T06:03:26;5.21;71.75
75683;HTU21D;64295;44.772;39.872;2023-02-01T06:05:52;5.27;71.67
75683;HTU21D;64295;44.772;39.872;2023-02-01T06:08:17;5.34;71.58
75683;HTU21D;64295;44.772;39.872;2023-02-01T06:10:43;5.36;71.51
75683;HTU21D;64295;44.772;39.872;2023-02-01T06:13:10;5.40;71.53
75683;HTU21D;64295;44.772;39.872;2023-02-01T06:15:36;5.43;71.49
75683;HTU21D;64295;44.772;39.872;2023-02-01T06:18:04;5.43;71.47
75683;HTU21D;64295;44.772;39.872;2023-02-01T06:20:30;5.46;71.46
75683;HTU21D;64295;44.772;39.872;2023-02-01T06:22:56;5.46;71.43
75683;HTU21D;64295;44.772;39.872;2023-02-01T06:25:22;5.45;71.48
75683;HTU21D;64295;44.772;39.872;2023-02-01T06:27:48;5.42;71.48
75683;HTU21D;64295;44.772;39.872;2023-02-01T06:30:14;5.40;71.53
75683;HTU21D;64295;44.772;39.872;2023-02-01T06:32:43;5.38;71.54
75683;HTU21D;64295;44.772;39.872;2023-02-01T06:35:09;5.42;71.54
75683;HTU21D;64295;44.772;39.872;2023-02-01T06:37:42;5.47;71.48
75683;HTU21D;64295;44.772;39.872;2023-02-01T06:40:08;5.52;71.40
75683;HTU21D;64295;44.772;39.872;2023-02-01T06:42:34;5.51;71.36
75683;HTU21D;64295;44.772;39.872;2023-02-01T06:45:00;5.43;71.49
75683;HTU21D;64295;44.772;39.872;2023-02-01T06:47:26;5.45;71.57
75683;HTU21D;64295;44.772;39.872;2023-02-01T06:49:52;5.48;71.54
75683;HTU21D;64295;44.772;39.872;2023-02-01T06:52:18;5.53;71.45
75683;HTU21D;64295;44.772;39.872;2023-02-01T06:54:43;5.57;71.33
75683;HTU21D;64295;44.772;39.872;2023-02-01T06:57:09;5.63;71.22
75683;HTU21D;64295;44.772;39.872;2023-02-01T06:59:35;5.68;71.10
75683;HTU21D;64295;44.772;39.872;2023-02-01T07:02:01;5.71;71.03
75683;HTU21D;64295;44.772;39.872;2023-02-01T07:04:27;5.76;70.97
75683;HTU21D;64295;44.772;39.872;2023-02-01T07:06:53;5.80;70.93
75683;HTU21D;64295;44.772;39.872;2023-02-01T07:09:19;5.82;70.88
75683;HTU21D;64295;44.772;39.872;2023-02-01T07:11:45;5.89;70.83
75683;HTU21D;64295;44.772;39.872;2023-02-01T07:14:10;5.91;70.74
75683;HTU21D;64295;44.772;39.872;2023-02-01T07:16:37;5.95;70.71
75683;HTU21D;64295;44.772;39.872;2023-02-01T07:19:04;5.95;70.72
75683;HTU21D;64295;44.772;39.872;2023-02-01T07:21:30;5.98;70.66
75683;HTU21D;64295;44.772;39.872;2023-02-01T07:23:56;5.99;70.64
75683;HTU21D;64295;44.772;39.872;2023-02-01T07:26:21;5.99;70.64
75683;HTU21D;64295;44.772;39.872;2023-02-01T07:28:48;5.98;70.64
75683;HTU21D;64295;44.772;39.872;2023-02-01T07:31:16;6.04;70.62
75683;HTU21D;64295;44.772;39.872;2023-02-01T07:33:44;6.11;70.45
75683;HTU21D;64295;44.772;39.872;2023-02-01T07:36:15;6.17;70.39
75683;HTU21D;64295;44.772;39.872;2023-02-01T07:38:42;6.22;70.25
75683;HTU21D;64295;44.772;39.872;2023-02-01T07:41:08;6.23;70.29
75683;HTU21D;64295;44.772;39.872;2023-02-01T07:43:35;6.22;70.30
75683;HTU21D;64295;44.772;39.872;2023-02-01T07:46:02;6.23;70.32
75683;HTU21D;64295;44.772;39.872;2023-02-01T07:48:29;6.26;70.32
75683;HTU21D;64295;44.772;39.872;2023-02-01T07:50:59;6.30;70.26
75683;HTU21D;64295;44.772;39.872;2023-02-01T07:53:25;6.37;70.15
75683;HTU21D;64295;44.772;39.872;2023-02-01T07:55:51;6.38;70.10
75683;HTU21D;64295;44.772;39.872;2023-02-01T07:58:17;6.42;70.07
75683;HTU21D;64295;44.772;39.872;2023-02-01T08:00:43;6.44;70.01
75683;HTU21D;64295;44.772;39.872;2023-02-01T08:03:27;6.44;70.03
75683;HTU21D;64295;44.772;39.872;2023-02-01T08:05:56;6.50;70.03
75683;HTU21D;64295;44.772;39.872;2023-02-01T08:08:22;6.58;69.94
75683;HTU21D;64295;44.772;39.872;2023-02-01T08:10:49;6.72;69.79
75683;HTU21D;64295;44.772;39.872;2023-02-01T08:13:15;6.99;69.46
75683;HTU21D;64295;44.772;39.872;2023-02-01T08:15:41;7.26;68.93
75683;HTU21D;64295;44.772;39.872;2023-02-01T08:18:06;7.35;68.79
75683;HTU21D;64295;44.772;39.872;2023-02-01T08:20:33;7.40;68.78
75683;HTU21D;64295;44.772;39.872;2023-02-01T08:23:02;7.37;68.80
75683;HTU21D;64295;44.772;39.872;2023-02-01T08:25:28;7.29;68.99
75683;HTU21D;64295;44.772;39.872;2023-02-01T08:27:54;7.28;69.13
75683;HTU21D;64295;44.772;39.872;2023-02-01T08:30:20;7.33;69.12
75683;HTU21D;64295;44.772;39.872;2023-02-01T08:32:47;7.27;69.16
75683;HTU21D;64295;44.772;39.872;2023-02-01T08:35:13;7.28;69.20
75683;HTU21D;64295;44.772;39.872;2023-02-01T08:37:39;7.31;69.16
75683;HTU21D;64295;44.772;39.872;2023-02-01T08:40:06;7.33;69.16
75683;HTU21D;64295;44.772;39.872;2023-02-01T08:42:32;7.38;69.08
75683;HTU21D;64295;44.772;39.872;2023-02-01T08:45:17;7.41;69.04
75683;HTU21D;64295;44.772;39.872;2023-02-01T08:47:44;7.47;68.98
75683;HTU21D;64295;44.772;39.872;2023-02-01T08:50:10;7.61;68.96
75683;HTU21D;64295;44.772;39.872;2023-02-01T08:52:36;7.71;68.69
75683;HTU21D;64295;44.772;39.872;2023-02-01T08:55:02;7.75;68.62
75683;HTU21D;64295;44.772;39.872;2023-02-01T08:57:28;7.81;68.62
75683;HTU21D;64295;44.772;39.872;2023-02-01T08:59:54;7.84;68.52
75683;HTU21D;64295;44.772;39.872;2023-02-01T09:02:20;7.84;68.45
75683;HTU21D;64295;44.772;39.872;2023-02-01T09:04:45;7.85;68.39
75683;HTU21D;64295;44.772;39.872;2023-02-01T09:07:11;7.77;68.46
75683;HTU21D;64295;44.772;39.872;2023-02-01T09:09:38;7.83;68.45
75683;HTU21D;64295;44.772;39.872;2023-02-01T09:12:05;7.99;68.21
75683;HTU21D;64295;44.772;39.872;2023-02-01T09:14:31;8.09;67.96
75683;HTU21D;64295;44.772;39.872;2023-02-01T09:16:57;8.18;67.70
75683;HTU21D;64295;44.772;39.872;2023-02-01T09:19:23;8.21;67.62
75683;HTU21D;64295;44.772;39.872;2023-02-01T09:21:49;8.24;67.74
75683;HTU21D;64295;44.772;39.872;2023-02-01T09:24:14;8.41;67.62
75683;HTU21D;64295;44.772;39.872;2023-02-01T09:26:40;8.59;67.30
75683;HTU21D;64295;44.772;39.872;2023-02-01T09:29:06;8.77;66.98
75683;HTU21D;64295;44.772;39.872;2023-02-01T09:31:38;8.97;66.62
75683;HTU21D;64295;44.772;39.872;2023-02-01T09:34:05;9.06;66.39
75683;HTU21D;64295;44.772;39.872;2023-02-01T09:36:32;9.10;66.40
75683;HTU21D;64295;44.772;39.872;2023-02-01T09:38:58;9.22;66.12
75683;HTU21D;64295;44.772;39.872;2023-02-01T09:44:25;9.22;66.13
75683;HTU21D;64295;44.772;39.872;2023-02-01T09:46:58;9.29;65.94
75683;HTU21D;64295;44.772;39.872;2023-02-01T09:49:31;9.29;66.01
75683;HTU21D;64295;44.772;39.872;2023-02-01T09:51:59;9.51;65.86
75683;HTU21D;64295;44.772;39.872;2023-02-01T09:54:35;9.67;65.51
75683;HTU21D;64295;44.772;39.872;2023-02-01T09:57:15;9.77;65.15
75683;HTU21D;64295;44.772;39.872;2023-02-01T10:00:00;9.63;65.19
75683;HTU21D;64295;44.772;39.872;2023-02-01T10:02:39;9.51;65.62
75683;HTU21D;64295;44.772;39.872;2023-02-01T10:05:05;9.53;65.66
75683;HTU21D;64295;44.772;39.872;2023-02-01T10:07:35;9.49;65.53
75683;HTU21D;64295;44.772;39.872;2023-02-01T10:15:41;9.32;65.71
75683;HTU21D;64295;44.772;39.872;2023-02-01T10:21:18;9.39;65.34
75683;HTU21D;64295;44.772;39.872;2023-02-01T10:26:41;9.50;65.21
75683;HTU21D;64295;44.772;39.872;2023-02-01T10:29:16;9.63;65.18
75683;HTU21D;64295;44.772;39.872;2023-02-01T10:31:43;9.63;65.24
75683;HTU21D;64295;44.772;39.872;2023-02-01T10:34:25;9.63;65.31
75683;HTU21D;64295;44.772;39.872;2023-02-01T10:37:02;9.57;65.50
75683;HTU21D;64295;44.772;39.872;2023-02-01T10:39:33;9.49;65.58
75683;HTU21D;64295;44.772;39.872;2023-02-01T10:41:59;9.37;65.48
75683;HTU21D;64295;44.772;39.872;2023-02-01T10:44:28;9.27;65.42
75683;HTU21D;64295;44.772;39.872;2023-02-01T10:46:54;9.19;65.37
75683;HTU21D;64295;44.772;39.872;2023-02-01T10:49:33;9.22;65.30
75683;HTU21D;64295;44.772;39.872;2023-02-01T10:52:41;9.32;65.01
75683;HTU21D;64295;44.772;39.872;2023-02-01T10:55:29;9.39;64.89
75683;HTU21D;64295;44.772;39.872;2023-02-01T10:58:01;9.40;64.85
75683;HTU21D;64295;44.772;39.872;2023-02-01T11:00:28;9.40;64.88
75683;HTU21D;64295;44.772;39.872;2023-02-01T11:02:59;9.44;64.82
75683;HTU21D;64295;44.772;39.872;2023-02-01T11:05:25;9.44;64.91
75683;HTU21D;64295;44.772;39.872;2023-02-01T11:07:54;9.40;64.88
75683;HTU21D;64295;44.772;39.872;2023-02-01T11:10:37;9.33;65.00
75683;HTU21D;64295;44.772;39.872;2023-02-01T11:13:04;9.32;65.10
75683;HTU21D;64295;44.772;39.872;2023-02-01T11:15:30;9.34;65.03
75683;HTU21D;64295;44.772;39.872;2023-02-01T11:17:56;9.29;64.98
75683;HTU21D;64295;44.772;39.872;2023-02-01T11:22:59;9.19;65.04
75683;HTU21D;64295;44.772;39.872;2023-02-01T11:25:26;9.18;65.10
75683;HTU21D;64295;44.772;39.872;2023-02-01T11:27:54;9.18;65.09
75683;HTU21D;64295;44.772;39.872;2023-02-01T11:32:57;9.25;65.16
75683;HTU21D;64295;44.772;39.872;2023-02-01T11:35:23;9.45;65.25
75683;HTU21D;64295;44.772;39.872;2023-02-01T11:37:59;9.64;64.98
75683;HTU21D;64295;44.772;39.872;2023-02-01T11:40:35;9.61;64.79
75683;HTU21D;64295;44.772;39.872;2023-02-01T11:45:57;9.44;64.85
75683;HTU21D;64295;44.772;39.872;2023-02-01T11:48:25;9.38;64.90
75683;HTU21D;64295;44.772;39.872;2023-02-01T11:59:22;9.35;64.66
75683;HTU21D;64295;44.772;39.872;2023-02-01T12:01:59;9.30;64.59
75683;HTU21D;64295;44.772;39.872;2023-02-01T12:10:42;9.27;64.40
75683;HTU21D;64295;44.772;39.872;2023-02-01T12:18:35;9.20;64.37
75683;HTU21D;64295;44.772;39.872;2023-02-01T12:21:30;9.18;64.31
75683;HTU21D;64295;44.772;39.872;2023-02-01T12:43:36;8.83;64.72
75683;HTU21D;64295;44.772;39.872;2023-02-01T12:46:09;8.89;64.52
75683;HTU21D;64295;44.772;39.872;2023-02-01T12:48:59;8.87;64.41
75683;HTU21D;64295;44.772;39.872;2023-02-01T12:51:34;8.82;64.45
75683;HTU21D;64295;44.772;39.872;2023-02-01T12:56:43;8.74;64.43
75683;HTU21D;64295;44.772;39.872;2023-02-01T12:59:38;8.72;64.43
75683;HTU21D;64295;44.772;39.872;2023-02-01T13:02:33;8.75;64.40
75683;HTU21D;64295;44.772;39.872;2023-02-01T13:05:22;8.76;64.32
75683;HTU21D;64295;44.772;39.872;2023-02-01T13:08:06;8.76;64.27
75683;HTU21D;64295;44.772;39.872;2023-02-01T13:10:51;8.75;64.32
75683;HTU21D;64295;44.772;39.872;2023-02-01T13:13:26;8.75;64.30
75683;HTU21D;64295;44.772;39.872;2023-02-01T13:16:42;8.79;64.21
75683;HTU21D;64295;44.772;39.872;2023-02-01T13:18:51;8.82;64.14
75683;HTU21D;64295;44.772;39.872;2023-02-01T13:21:25;8.83;64.09
75683;HTU21D;64295;44.772;39.872;2023-02-01T13:23:52;8.83;64.06
75683;HTU21D;64295;44.772;39.872;2023-02-01T13:26:18;8.85;64.04
75683;HTU21D;64295;44.772;39.872;2023-02-01T13:28:58;8.81;64.05
75683;HTU21D;64295;44.772;39.872;2023-02-01T13:42:54;8.72;64.09
75683;HTU21D;64295;44.772;39.872;2023-02-01T13:45:27;8.67;64.11
75683;HTU21D;64295;44.772;39.872;2023-02-01T13:47:57;8.64;64.18
75683;HTU21D;64295;44.772;39.872;2023-02-01T13:50:35;8.66;64.14
75683;HTU21D;64295;44.772;39.872;2023-02-01T13:55:36;8.62;64.12
75683;HTU21D;64295;44.772;39.872;2023-02-01T13:58:22;8.71;64.02
75683;HTU21D;64295;44.772;39.872;2023-02-01T14:19:27;8.86;64.14
75683;HTU21D;64295;44.772;39.872;2023-02-01T14:21:55;8.89;64.28
75683;HTU21D;64295;44.772;39.872;2023-02-01T14:24:31;8.96;64.29
75683;HTU21D;64295;44.772;39.872;2023-02-01T14:29:41;9.03;64.02
75683;HTU21D;64295;44.772;39.872;2023-02-01T14:58:56;8.93;64.42
75683;HTU21D;64295;44.772;39.872;2023-02-01T15:01:36;8.83;64.37
75683;HTU21D;64295;44.772;39.872;2023-02-01T15:04:13;8.88;64.47
75683;HTU21D;64295;44.772;39.872;2023-02-01T15:09:20;8.68;64.56
75683;HTU21D;64295;44.772;39.872;2023-02-01T15:14:28;8.59;64.56
75683;HTU21D;64295;44.772;39.872;2023-02-01T15:16:55;8.53;64.56
75683;HTU21D;64295;44.772;39.872;2023-02-01T15:19:26;8.51;64.53
75683;HTU21D;64295;44.772;39.872;2023-02-01T15:21:57;8.47;65.07
75683;HTU21D;64295;44.772;39.872;2023-02-01T15:24:27;8.60;64.85
75683;HTU21D;64295;44.772;39.872;2023-02-01T15:26:54;8.52;64.73
75683;HTU21D;64295;44.772;39.872;2023-02-01T15:29:22;8.41;64.85
75683;HTU21D;64295;44.772;39.872;2023-02-01T15:31:53;8.33;64.92
75683;HTU21D;64295;44.772;39.872;2023-02-01T15:34:20;8.24;64.97
75683;HTU21D;64295;44.772;39.872;2023-02-01T15:36:46;8.21;64.95
75683;HTU21D;64295;44.772;39.872;2023-02-01T15:39:17;8.18;64.92
75683;HTU21D;64295;44.772;39.872;2023-02-01T15:44:38;8.12;64.87
75683;HTU21D;64295;44.772;39.872;2023-02-01T15:47:23;8.05;64.92
75683;HTU21D;64295;44.772;39.872;2023-02-01T15:49:54;7.99;64.95
75683;HTU21D;64295;44.772;39.872;2023-02-01T15:52:22;7.92;65.04
75683;HTU21D;64295;44.772;39.872;2023-02-01T15:54:53;7.89;65.06
75683;HTU21D;64295;44.772;39.872;2023-02-01T15:57:28;7.87;65.04
75683;HTU21D;64295;44.772;39.872;2023-02-01T16:00:03;7.84;65.05
75683;HTU21D;64295;44.772;39.872;2023-02-01T16:02:42;8.13;65.32
75683;HTU21D;64295;44.772;39.872;2023-02-01T16:05:37;8.45;65.06
75683;HTU21D;64295;44.772;39.872;2023-02-01T16:08:14;8.47;64.53
75683;HTU21D;64295;44.772;39.872;2023-02-01T16:10:43;8.26;64.72
75683;HTU21D;64295;44.772;39.872;2023-02-01T16:13:11;8.12;64.97
75683;HTU21D;64295;44.772;39.872;2023-02-01T16:15:38;8.00;65.08
75683;HTU21D;64295;44.772;39.872;2023-02-01T16:18:05;7.91;65.23
75683;HTU21D;64295;44.772;39.872;2023-02-01T16:20:32;7.83;65.26
75683;HTU21D;64295;44.772;39.872;2023-02-01T16:22:58;7.77;65.30
75683;HTU21D;64295;44.772;39.872;2023-02-01T16:25:24;7.76;65.25
75683;HTU21D;64295;44.772;39.872;2023-02-01T16:27:50;7.75;65.22
75683;HTU21D;64295;44.772;39.872;2023-02-01T16:30:16;7.77;65.16
75683;HTU21D;64295;44.772;39.872;2023-02-01T16:32:59;7.76;65.13
75683;HTU21D;64295;44.772;39.872;2023-02-01T16:35:31;7.73;65.15
75683;HTU21D;64295;44.772;39.872;2023-02-01T16:38:01;7.72;65.11
75683;HTU21D;64295;44.772;39.872;2023-02-01T16:40:27;7.70;65.04
75683;HTU21D;64295;44.772;39.872;2023-02-01T16:42:53;7.68;65.08
75683;HTU21D;64295;44.772;39.872;2023-02-01T16:45:22;7.65;65.08
75683;HTU21D;64295;44.772;39.872;2023-02-01T16:47:52;7.59;65.04
75683;HTU21D;64295;44.772;39.872;2023-02-01T16:50:24;7.56;65.15
75683;HTU21D;64295;44.772;39.872;2023-02-01T16:52:52;7.53;65.17
75683;HTU21D;64295;44.772;39.872;2023-02-01T16:55:20;7.45;65.30
75683;HTU21D;64295;44.772;39.872;2023-02-01T16:57:47;7.45;65.30
75683;HTU21D;64295;44.772;39.872;2023-02-01T17:00:13;7.45;65.23
75683;HTU21D;64295;44.772;39.872;2023-02-01T17:02:41;7.39;65.36
75683;HTU21D;64295;44.772;39.872;2023-02-01T17:05:09;7.35;65.38
75683;HTU21D;64295;44.772;39.872;2023-02-01T17:07:35;7.34;65.44
75683;HTU21D;64295;44.772;39.872;2023-02-01T17:10:04;7.34;65.43
75683;HTU21D;64295;44.772;39.872;2023-02-01T17:12:32;7.35;65.41
75683;HTU21D;64295;44.772;39.872;2023-02-01T17:14:59;7.39;65.34
75683;HTU21D;64295;44.772;39.872;2023-02-01T17:17:35;7.40;65.37
75683;HTU21D;64295;44.772;39.872;2023-02-01T17:20:03;7.38;65.36
75683;HTU21D;64295;44.772;39.872;2023-02-01T17:22:29;7.41;65.37
75683;HTU21D;64295;44.772;39.872;2023-02-01T17:24:55;7.41;65.37
75683;HTU21D;64295;44.772;39.872;2023-02-01T17:27:21;7.37;65.41
75683;HTU21D;64295;44.772;39.872;2023-02-01T17:29:47;7.33;65.51
75683;HTU21D;64295;44.772;39.872;2023-02-01T17:32:19;7.29;65.66
75683;HTU21D;64295;44.772;39.872;2023-02-01T17:34:46;7.28;65.69
75683;HTU21D;64295;44.772;39.872;2023-02-01T17:37:32;7.26;65.85
75683;HTU21D;64295;44.772;39.872;2023-02-01T17:39:59;7.24;65.85
75683;HTU21D;64295;44.772;39.872;2023-02-01T17:42:26;7.22;65.93
75683;HTU21D;64295;44.772;39.872;2023-02-01T17:44:56;7.17;65.99
75683;HTU21D;64295;44.772;39.872;2023-02-01T17:47:22;7.16;66.06
75683;HTU21D;64295;44.772;39.872;2023-02-01T17:49:48;7.13;66.09
75683;HTU21D;64295;44.772;39.872;2023-02-01T17:52:23;7.10;66.20
75683;HTU21D;64295;44.772;39.872;2023-02-01T17:54:49;7.12;66.24
75683;HTU21D;64295;44.772;39.872;2023-02-01T17:57:18;7.10;66.24
75683;HTU21D;64295;44.772;39.872;2023-02-01T17:59:44;7.10;66.36
75683;HTU21D;64295;44.772;39.872;2023-02-01T18:02:21;7.13;66.39
75683;HTU21D;64295;44.772;39.872;2023-02-01T18:04:48;7.14;66.27
75683;HTU21D;64295;44.772;39.872;2023-02-01T18:07:15;7.15;66.32
75683;HTU21D;64295;44.772;39.872;2023-02-01T18:09:41;7.16;66.28
75683;HTU21D;64295;44.772;39.872;2023-02-01T18:12:18;7.15;66.46
75683;HTU21D;64295;44.772;39.872;2023-02-01T18:14:45;7.30;66.37
75683;HTU21D;64295;44.772;39.872;2023-02-01T18:17:11;7.42;66.15
75683;HTU21D;64295;44.772;39.872;2023-02-01T18:19:37;7.41;66.18
75683;HTU21D;64295;44.772;39.872;2023-02-01T18:22:03;7.42;66.24